Terminal Aerodrome Forecast
Issued by NWS Northern Indiana

Home | Current Version | Previous Version | Graphics & Text | Print | Product List | Glossary On
Versions: 1 2 3 4 5 6 7 8 9 10 11 12 13 14 15 16 17
000
FTUS43 KIWX 280520
TAFFWA
TAF
KFWA 280520Z 2806/2906 20003KT 6SM BR BKN120
     FM280800 VRB02KT 4SM BR FEW010 BKN120
     FM281300 00000KT P6SM SCT020 BKN150
     FM281600 27005KT P6SM SCT040 BKN150
     FM290000 33003KT P6SM SCT200=

USA.gov is the U.S. government's official web portal to all federal, state and local government web resources and services.